Time;durP1;ratioP1;P1;durP2;ratioP2;P2;SDS_P1;SDS_P2;PMS_P1;PMS_P2;Temp;Humidity;BMP_temperature;BMP_pressure;BME280_temperature;BME280_humidity;BME280_pressure;Samples;Min_cycle;Max_cycle;Signal;HPM_P1;HPM_P2
2023/03/01 00:01:23;;;;;;;21.42;8.80;;;4.30;92.20;;;;;;6182544;23;20055;-81
2023/03/01 00:03:51;;;;;;;23.08;10.02;;;4.30;92.20;;;;;;6182789;23;20021;-81
2023/03/01 00:06:20;;;;;;;17.67;8.15;;;4.30;92.10;;;;;;6158226;23;20104;-81
2023/03/01 00:08:48;;;;;;;21.38;8.38;;;4.30;92.20;;;;;;6180122;23;20079;-81
2023/03/01 00:11:18;;;;;;;18.10;7.78;;;4.30;92.20;;;;;;6159034;23;20120;-81
2023/03/01 00:13:49;;;;;;;21.40;8.40;;;4.30;92.20;;;;;;6181483;23;20060;-81
2023/03/01 00:16:40;;;;;;;19.73;7.72;;;4.30;92.10;;;;;;6181946;23;20027;-81
2023/03/01 00:19:12;;;;;;;19.58;7.72;;;4.30;92.10;;;;;;6185081;23;20017;-80
2023/03/01 00:21:39;;;;;;;20.40;8.02;;;4.30;92.10;;;;;;6179598;23;20412;-81
2023/03/01 00:24:07;;;;;;;18.75;7.63;;;4.30;92.00;;;;;;6179753;23;20052;-81
2023/03/01 00:26:34;;;;;;;19.98;9.60;;;4.30;92.10;;;;;;6180181;23;20017;-81
2023/03/01 00:29:01;;;;;;;21.77;7.85;;;4.30;92.00;;;;;;6179646;23;20021;-81
2023/03/01 00:31:31;;;;;;;22.67;8.18;;;4.30;92.00;;;;;;6180717;23;20025;-81
2023/03/01 00:34:03;;;;;;;24.73;9.80;;;4.30;92.00;;;;;;6180878;23;20032;-81
2023/03/01 00:36:33;;;;;;;21.60;9.18;;;4.30;92.10;;;;;;6182895;23;20483;-82
2023/03/01 00:39:01;;;;;;;19.85;7.75;;;4.30;92.10;;;;;;6180394;23;20028;-81
2023/03/01 00:41:29;;;;;;;22.73;8.63;;;4.30;92.20;;;;;;6158224;23;20139;-80
2023/03/01 00:43:56;;;;;;;23.65;8.82;;;4.30;92.30;;;;;;6187094;23;20021;-81
2023/03/01 00:46:25;;;;;;;25.42;9.52;;;4.30;92.20;;;;;;6181781;23;20032;-81
2023/03/01 00:48:53;;;;;;;21.08;8.70;;;4.30;92.20;;;;;;6185127;23;20021;-81
2023/03/01 00:51:24;;;;;;;21.63;9.35;;;4.30;92.20;;;;;;6156366;23;20029;-81
2023/03/01 00:53:53;;;;;;;19.85;8.27;;;4.30;92.20;;;;;;6181233;23;20044;-81
2023/03/01 00:56:21;;;;;;;20.13;8.38;;;4.30;92.20;;;;;;6187331;23;20064;-81
2023/03/01 00:58:48;;;;;;;20.20;8.43;;;4.30;92.30;;;;;;6159817;23;20061;-81
2023/03/01 01:01:21;;;;;;;19.10;8.52;;;4.30;92.30;;;;;;6184618;23;20035;-81
2023/03/01 01:03:56;;;;;;;19.10;7.97;;;4.30;92.30;;;;;;6181762;23;20036;-82
2023/03/01 01:06:35;;;;;;;19.60;8.32;;;4.30;92.30;;;;;;6183267;23;20032;-81
2023/03/01 01:09:05;;;;;;;20.08;7.63;;;4.30;92.30;;;;;;6191776;23;20096;-81
2023/03/01 01:11:32;;;;;;;18.52;7.88;;;4.30;92.40;;;;;;6183918;23;20024;-82
2023/03/01 01:14:00;;;;;;;18.70;7.97;;;4.30;92.40;;;;;;6161382;23;20029;-82
2023/03/01 01:16:29;;;;;;;19.98;7.60;;;4.30;92.50;;;;;;6187005;23;20106;-82
2023/03/01 01:18:57;;;;;;;20.67;7.53;;;4.30;92.40;;;;;;6182679;23;20100;-82
2023/03/01 01:21:25;;;;;;;21.77;7.78;;;4.30;92.30;;;;;;6182676;23;20057;-82
2023/03/01 01:23:53;;;;;;;21.10;8.38;;;4.30;92.40;;;;;;6182544;23;20047;-81
2023/03/01 01:26:23;;;;;;;18.02;8.20;;;4.20;92.40;;;;;;6185834;23;20017;-81
2023/03/01 01:28:50;;;;;;;19.73;8.02;;;4.30;92.50;;;;;;6181901;23;20080;-82
2023/03/01 01:31:18;;;;;;;25.55;9.63;;;4.30;92.60;;;;;;6181992;23;20452;-81
2023/03/01 01:33:46;;;;;;;24.73;9.68;;;4.20;92.60;;;;;;6160887;23;20025;-81
2023/03/01 01:36:13;;;;;;;21.10;8.88;;;4.20;92.60;;;;;;6185094;23;20056;-81
2023/03/01 01:38:42;;;;;;;24.40;8.98;;;4.20;92.60;;;;;;6183441;23;20025;-81
2023/03/01 01:41:13;;;;;;;22.05;9.45;;;4.20;92.60;;;;;;6158092;23;20028;-81
2023/03/01 01:43:45;;;;;;;27.85;10.25;;;4.30;92.70;;;;;;6182911;23;20017;-81
2023/03/01 01:46:18;;;;;;;24.83;9.53;;;4.30;92.80;;;;;;6188499;23;20044;-81
2023/03/01 01:48:52;;;;;;;24.40;9.57;;;4.20;92.60;;;;;;6185401;23;20262;-81
2023/03/01 01:51:25;;;;;;;20.02;7.32;;;4.20;92.60;;;;;;6184843;23;20032;-81
2023/03/01 01:53:58;;;;;;;24.40;7.88;;;4.20;92.50;;;;;;6183274;23;20491;-81
2023/03/01 01:56:25;;;;;;;;;;;4.20;92.50;;;;;;6183645;23;20025;-81
2023/03/01 01:58:54;;;;;;;25.08;9.13;;;4.20;92.70;;;;;;6163464;23;19920;-81
2023/03/01 02:01:22;;;;;;;21.10;8.35;;;4.20;92.90;;;;;;6184989;23;20049;-81
2023/03/01 02:03:50;;;;;;;24.48;9.75;;;4.20;93.00;;;;;;6184306;23;20020;-81
2023/03/01 02:06:37;;;;;;;25.33;9.13;;;4.20;93.20;;;;;;6163954;23;20053;-81
2023/03/01 02:09:10;;;;;;;24.75;9.88;;;4.20;93.20;;;;;;6189464;23;20032;-81
2023/03/01 02:11:37;;;;;;;23.27;9.02;;;4.20;93.30;;;;;;6159361;23;20036;-81
2023/03/01 02:14:06;;;;;;;19.70;7.57;;;4.20;93.20;;;;;;6186054;23;20021;-81
2023/03/01 02:16:33;;;;;;;17.48;7.45;;;4.20;93.30;;;;;;6185999;23;20025;-81
2023/03/01 02:19:04;;;;;;;17.20;7.03;;;4.20;93.30;;;;;;6187725;23;20027;-83
2023/03/01 02:22:01;;;;;;;23.08;8.68;;;4.20;93.50;;;;;;6186710;23;20080;-82
2023/03/01 02:24:34;;;;;;;21.17;9.02;;;4.20;93.60;;;;;;6186629;23;20029;-80
2023/03/01 02:27:02;;;;;;;17.60;7.47;;;4.20;93.70;;;;;;6184733;23;20017;-82
2023/03/01 02:29:29;;;;;;;16.35;6.90;;;4.20;93.70;;;;;;6183479;23;20031;-82
2023/03/01 02:32:00;;;;;;;17.27;6.65;;;4.20;93.70;;;;;;6190836;23;20028;-81
2023/03/01 02:34:28;;;;;;;18.60;7.40;;;4.20;93.80;;;;;;6163972;23;20076;-81
2023/03/01 02:37:09;;;;;;;18.13;7.90;;;4.20;93.90;;;;;;6182682;23;20028;-81
2023/03/01 02:39:58;;;;;;;20.33;6.82;;;4.20;94.10;;;;;;6188022;23;20338;-82
2023/03/01 02:42:40;;;;;;;22.77;7.93;;;4.20;93.80;;;;;;6181578;23;20048;-81
2023/03/01 02:45:07;;;;;;;20.10;7.85;;;4.20;93.90;;;;;;6182974;23;20594;-81
2023/03/01 02:47:34;;;;;;;20.17;7.72;;;4.20;93.70;;;;;;6159468;23;20081;-82
2023/03/01 02:50:02;;;;;;;20.23;7.57;;;4.20;93.60;;;;;;6182146;23;20103;-81
2023/03/01 02:52:52;;;;;;;17.52;7.43;;;4.20;93.70;;;;;;6185420;23;20326;-82
2023/03/01 02:55:19;;;;;;;22.17;7.63;;;4.20;93.70;;;;;;6182644;23;20045;-81
2023/03/01 02:57:50;;;;;;;16.13;6.28;;;4.20;93.70;;;;;;6181314;23;20081;-82
2023/03/01 03:00:29;;;;;;;17.63;7.43;;;4.20;93.80;;;;;;6181654;23;20036;-80
2023/03/01 03:02:57;;;;;;;17.65;6.80;;;4.20;93.90;;;;;;6184197;23;20393;-81
2023/03/01 03:05:28;;;;;;;17.77;6.15;;;4.20;93.80;;;;;;6182078;23;20025;-81
2023/03/01 03:07:58;;;;;;;19.13;6.55;;;4.20;93.80;;;;;;6189064;23;20024;-81
2023/03/01 03:10:30;;;;;;;17.75;7.32;;;4.20;93.80;;;;;;6184694;23;20036;-82
2023/03/01 03:13:04;;;;;;;21.00;7.35;;;4.20;93.70;;;;;;6183129;23;20029;-81
2023/03/01 03:15:35;;;;;;;17.10;6.30;;;4.20;93.80;;;;;;6182744;23;20089;-82
2023/03/01 03:18:05;;;;;;;17.63;7.18;;;4.20;93.90;;;;;;6158586;23;20036;-82
2023/03/01 03:20:33;;;;;;;22.05;7.20;;;4.20;93.90;;;;;;6185545;23;20021;-82
2023/03/01 03:23:01;;;;;;;19.80;7.55;;;4.20;93.90;;;;;;6186664;23;20053;-82
2023/03/01 03:25:29;;;;;;;21.48;7.32;;;4.10;93.70;;;;;;6159392;23;20021;-81
2023/03/01 03:27:57;;;;;;;15.35;6.80;;;4.10;93.70;;;;;;6188887;23;20044;-81
2023/03/01 03:30:31;;;;;;;18.63;6.72;;;4.20;93.80;;;;;;6188223;23;20028;-81
2023/03/01 03:32:59;;;;;;;19.13;7.72;;;4.20;93.80;;;;;;6186960;23;20461;-81
2023/03/01 03:35:31;;;;;;;19.85;7.10;;;4.10;93.70;;;;;;6160909;23;20524;-81
2023/03/01 03:38:01;;;;;;;16.30;7.00;;;4.10;93.80;;;;;;6184316;23;20083;-81
2023/03/01 03:40:40;;;;;;;19.73;8.13;;;4.10;93.80;;;;;;6187009;23;20025;-81
2023/03/01 03:43:10;;;;;;;17.08;8.15;;;4.10;94.00;;;;;;6185906;23;20048;-81
2023/03/01 03:45:37;;;;;;;15.70;6.95;;;4.10;94.00;;;;;;6189509;23;20028;-81
2023/03/01 03:48:07;;;;;;;14.93;7.60;;;4.10;94.10;;;;;;6189792;23;20025;-81
2023/03/01 03:50:35;;;;;;;17.33;7.60;;;4.10;94.20;;;;;;6160453;23;20540;-81
2023/03/01 03:53:05;;;;;;;15.73;6.40;;;4.10;94.10;;;;;;6163888;23;20041;-82
2023/03/01 03:55:33;;;;;;;16.70;6.57;;;4.10;94.00;;;;;;6188203;23;20046;-82
2023/03/01 03:58:06;;;;;;;17.10;5.97;;;4.10;94.10;;;;;;6186884;23;20394;-81
2023/03/01 04:00:36;;;;;;;16.98;6.97;;;4.10;94.10;;;;;;6184536;23;20044;-81
2023/03/01 04:03:03;;;;;;;15.32;6.68;;;4.10;94.20;;;;;;6187726;23;20471;-81
2023/03/01 04:05:31;;;;;;;21.75;7.70;;;4.10;94.20;;;;;;6187355;23;20021;-81
2023/03/01 04:08:02;;;;;;;23.73;7.82;;;4.10;94.30;;;;;;6159753;23;20025;-81
2023/03/01 04:10:31;;;;;;;21.33;8.55;;;4.10;94.40;;;;;;6184409;23;20036;-81
2023/03/01 04:12:58;;;;;;;21.02;7.75;;;4.10;94.40;;;;;;6184748;23;20025;-81
2023/03/01 04:15:26;;;;;;;23.33;8.80;;;4.10;94.30;;;;;;6180340;23;20029;-81
2023/03/01 04:17:55;;;;;;;25.30;8.45;;;4.10;94.40;;;;;;6161093;23;20057;-81
2023/03/01 04:20:25;;;;;;;20.92;8.45;;;4.10;94.30;;;;;;6186350;23;20020;-81
2023/03/01 04:23:10;;;;;;;18.75;6.90;;;4.10;94.30;;;;;;6182357;23;20032;-81
2023/03/01 04:25:53;;;;;;;19.95;8.38;;;4.10;94.40;;;;;;6181885;23;20048;-81
2023/03/01 04:28:34;;;;;;;18.67;7.35;;;4.10;94.50;;;;;;6182300;23;20017;-81
2023/03/01 04:31:15;;;;;;;20.52;7.57;;;4.10;94.50;;;;;;6185296;23;20048;-81
2023/03/01 04:33:51;;;;;;;21.88;8.55;;;4.10;94.50;;;;;;6183550;23;20069;-81
2023/03/01 04:36:20;;;;;;;23.88;8.95;;;4.10;94.60;;;;;;6186530;23;20361;-81
2023/03/01 04:38:48;;;;;;;21.50;8.57;;;4.10;94.60;;;;;;6183517;23;20021;-81
2023/03/01 04:41:18;;;;;;;21.30;7.75;;;4.10;94.60;;;;;;6181922;23;20077;-81
2023/03/01 04:43:46;;;;;;;22.83;8.63;;;4.10;94.70;;;;;;6181284;23;20021;-81
2023/03/01 04:46:16;;;;;;;22.20;7.82;;;4.10;94.70;;;;;;6159257;23;20028;-81
2023/03/01 04:48:45;;;;;;;22.55;8.13;;;4.10;94.80;;;;;;6183053;23;20021;-81
2023/03/01 04:51:15;;;;;;;15.95;6.22;;;4.10;94.90;;;;;;6186540;23;20029;-81
2023/03/01 04:53:43;;;;;;;18.27;7.05;;;4.10;94.90;;;;;;6187500;23;20402;-81
2023/03/01 04:56:13;;;;;;;16.58;6.50;;;4.10;94.90;;;;;;6159904;23;20024;-81
2023/03/01 04:58:41;;;;;;;18.13;6.95;;;4.10;94.90;;;;;;6184702;23;20025;-81
2023/03/01 05:01:20;;;;;;;18.13;6.85;;;4.10;95.00;;;;;;6162407;23;20112;-81
2023/03/01 05:03:50;;;;;;;16.90;7.03;;;4.10;95.10;;;;;;6185974;23;20027;-81
2023/03/01 05:06:18;;;;;;;16.88;7.07;;;4.10;95.00;;;;;;6185436;23;20024;-81
2023/03/01 05:08:46;;;;;;;17.05;6.75;;;4.10;95.00;;;;;;6160070;23;20025;-82
2023/03/01 05:11:13;;;;;;;16.17;6.60;;;4.10;94.90;;;;;;6186163;23;20017;-82
2023/03/01 05:13:40;;;;;;;16.73;6.35;;;4.10;95.00;;;;;;6184596;23;20029;-82
2023/03/01 05:16:10;;;;;;;18.52;7.10;;;4.10;95.00;;;;;;6159651;23;20025;-81
2023/03/01 05:18:39;;;;;;;16.70;6.68;;;4.10;95.00;;;;;;6184704;23;20025;-81
2023/03/01 05:21:09;;;;;;;16.42;6.95;;;4.10;95.00;;;;;;6182404;23;20017;-81
2023/03/01 05:23:37;;;;;;;15.57;6.05;;;4.10;95.10;;;;;;6185206;23;20016;-82
2023/03/01 05:26:05;;;;;;;17.40;6.72;;;4.10;95.00;;;;;;6160716;23;20017;-82
2023/03/01 05:28:37;;;;;;;17.80;6.90;;;4.10;95.00;;;;;;6185587;23;20021;-81
2023/03/01 05:31:09;;;;;;;14.38;6.97;;;4.10;95.00;;;;;;6186112;23;20448;-81
2023/03/01 05:33:38;;;;;;;17.90;6.95;;;4.10;94.80;;;;;;6185411;23;20017;-81
2023/03/01 05:36:09;;;;;;;16.92;6.03;;;4.10;94.90;;;;;;6187441;23;20021;-81
2023/03/01 05:38:36;;;;;;;14.20;6.32;;;4.10;94.80;;;;;;6186591;23;20040;-81
2023/03/01 05:41:04;;;;;;;17.08;6.70;;;4.10;94.70;;;;;;6188785;23;20076;-82
2023/03/01 05:43:34;;;;;;;19.90;6.38;;;4.10;94.60;;;;;;6161798;23;20013;-81
2023/03/01 05:46:01;;;;;;;19.58;7.45;;;4.10;94.50;;;;;;6186463;23;20445;-81
2023/03/01 05:48:29;;;;;;;22.27;7.60;;;4.10;94.50;;;;;;6187943;23;20048;-81
2023/03/01 05:51:00;;;;;;;18.42;7.47;;;4.10;94.30;;;;;;6185929;23;20124;-81
2023/03/01 05:53:27;;;;;;;16.35;6.13;;;4.10;94.30;;;;;;6194427;23;20031;-81
2023/03/01 05:55:54;;;;;;;15.88;6.53;;;4.10;94.20;;;;;;6187720;23;20028;-81
2023/03/01 05:58:22;;;;;;;17.83;7.57;;;4.10;94.00;;;;;;6185329;23;20021;-82
2023/03/01 06:00:49;;;;;;;16.67;7.30;;;4.10;93.70;;;;;;6192066;23;20518;-82
2023/03/01 06:03:19;;;;;;;18.05;6.57;;;4.10;93.50;;;;;;6188144;23;20031;-81
2023/03/01 06:05:46;;;;;;;17.50;6.75;;;4.10;93.40;;;;;;6191329;23;20017;-81
2023/03/01 06:08:13;;;;;;;13.95;5.95;;;4.10;93.10;;;;;;6187675;23;20021;-81
2023/03/01 06:10:41;;;;;;;13.68;6.18;;;4.10;92.70;;;;;;6186886;23;20024;-81
2023/03/01 06:13:08;;;;;;;13.40;5.15;;;4.10;92.50;;;;;;6157187;23;20025;-81
2023/03/01 06:15:35;;;;;;;15.15;5.28;;;4.10;92.50;;;;;;6183235;23;20021;-81
2023/03/01 06:18:03;;;;;;;15.00;6.10;;;4.10;92.20;;;;;;6162439;23;20121;-81
2023/03/01 06:20:30;;;;;;;19.85;6.28;;;4.20;92.00;;;;;;6188369;23;20021;-80
2023/03/01 06:22:57;;;;;;;16.67;7.18;;;4.20;92.00;;;;;;6187124;23;20017;-81
2023/03/01 06:25:26;;;;;;;20.02;5.90;;;4.20;91.80;;;;;;6204439;23;20052;-81
2023/03/01 06:27:53;;;;;;;14.32;5.90;;;4.20;91.70;;;;;;6195553;23;19997;-81
2023/03/01 06:30:22;;;;;;;14.82;5.72;;;4.20;91.60;;;;;;6197721;23;20029;-81
2023/03/01 06:32:50;;;;;;;13.73;5.57;;;4.30;91.70;;;;;;6169314;23;20029;-81
2023/03/01 06:35:18;;;;;;;16.92;5.97;;;4.30;91.80;;;;;;6191238;23;20031;-81
2023/03/01 06:37:48;;;;;;;15.40;6.75;;;4.30;91.70;;;;;;6191337;23;20103;-81
2023/03/01 06:40:16;;;;;;;17.83;7.00;;;4.30;91.60;;;;;;6192841;23;20020;-81
2023/03/01 06:42:51;;;;;;;17.67;6.70;;;4.40;91.80;;;;;;6189341;23;20096;-82
2023/03/01 06:45:20;;;;;;;18.33;7.68;;;4.40;91.80;;;;;;6180457;23;20024;-81
2023/03/01 06:47:47;;;;;;;20.13;8.38;;;4.40;91.80;;;;;;6157416;23;20025;-81
2023/03/01 06:50:15;;;;;;;16.77;7.70;;;4.40;91.70;;;;;;6197037;23;20052;-81
2023/03/01 06:52:44;;;;;;;16.70;7.60;;;4.40;91.90;;;;;;6199008;23;20035;-82
2023/03/01 06:55:13;;;;;;;18.33;7.00;;;4.40;91.90;;;;;;6194026;23;20025;-81
2023/03/01 06:57:40;;;;;;;17.33;6.70;;;4.50;92.10;;;;;;6200155;23;20021;-82
2023/03/01 07:00:08;;;;;;;14.93;6.47;;;4.50;92.20;;;;;;6205703;23;20025;-82
2023/03/01 07:02:35;;;;;;;16.48;6.53;;;4.50;92.00;;;;;;6178510;23;20516;-82
2023/03/01 07:05:03;;;;;;;17.73;7.05;;;4.50;92.00;;;;;;6197239;23;20021;-81
2023/03/01 07:07:30;;;;;;;15.32;5.85;;;4.50;91.90;;;;;;6153968;23;20033;-82
2023/03/01 07:09:57;;;;;;;11.43;5.05;;;4.60;91.70;;;;;;6198746;23;20095;-81
2023/03/01 07:12:25;;;;;;;14.90;6.90;;;4.70;91.70;;;;;;6205441;23;20043;-81
2023/03/01 07:14:52;;;;;;;14.25;5.88;;;4.70;91.60;;;;;;6174425;23;20036;-82
2023/03/01 07:17:19;;;;;;;14.60;6.55;;;4.70;91.50;;;;;;6198908;23;20023;-82
2023/03/01 07:19:46;;;;;;;14.88;6.65;;;4.80;91.30;;;;;;6198141;23;20044;-81
2023/03/01 07:22:14;;;;;;;16.70;7.40;;;4.80;91.20;;;;;;6175567;23;20021;-82
2023/03/01 07:24:42;;;;;;;19.80;7.50;;;4.90;91.00;;;;;;6202964;23;20040;-81
2023/03/01 07:27:10;;;;;;;23.90;9.05;;;5.00;91.00;;;;;;6180119;23;20021;-81
2023/03/01 07:29:37;;;;;;;19.10;8.40;;;5.10;91.00;;;;;;6201103;23;20044;-81
2023/03/01 07:32:05;;;;;;;17.63;7.25;;;5.10;90.90;;;;;;6195958;23;20017;-81
2023/03/01 07:34:33;;;;;;;17.55;7.50;;;5.20;90.30;;;;;;6168643;23;20128;-81
2023/03/01 07:37:00;;;;;;;20.00;7.20;;;5.20;90.50;;;;;;6190372;23;20033;-81
2023/03/01 07:39:27;;;;;;;16.90;6.72;;;5.30;90.40;;;;;;6164792;23;20008;-82
2023/03/01 07:41:55;;;;;;;14.80;6.53;;;5.30;90.30;;;;;;6196407;23;20024;-81
2023/03/01 07:44:22;;;;;;;16.00;6.78;;;5.40;90.20;;;;;;6179315;23;20005;-81
2023/03/01 07:46:51;;;;;;;13.63;5.75;;;5.40;89.20;;;;;;6195097;23;20021;-82
2023/03/01 07:49:18;;;;;;;14.27;6.53;;;5.50;89.10;;;;;;6163458;23;20517;-81
2023/03/01 07:51:45;;;;;;;16.00;7.03;;;5.60;88.90;;;;;;6184074;23;20028;-80
2023/03/01 07:54:19;;;;;;;13.95;6.18;;;5.70;88.40;;;;;;6192047;23;20111;-81
2023/03/01 07:56:52;;;;;;;10.40;4.32;;;5.70;87.60;;;;;;6191186;23;20025;-81
2023/03/01 07:59:28;;;;;;;;;;;5.70;87.20;;;;;;6200640;23;20024;-81
2023/03/01 08:08:55;;;;;;;14.10;5.10;;;5.90;86.10;;;;;;6147569;23;20033;31
2023/03/01 08:11:28;;;;;;;10.90;4.97;;;5.90;86.00;;;;;;6211317;22;20515;-80
2023/03/01 08:18:00;;;;;;;9.13;3.47;;;6.00;86.30;;;;;;6194395;22;20050;31
2023/03/01 09:16:50;;;;;;;14.43;6.45;;;7.20;82.80;;;;;;6195899;22;20742;31
2023/03/01 10:47:40;;;;;;;9.18;4.55;;;9.90;73.10;;;;;;6165901;23;20043;31
2023/03/01 10:57:33;;;;;;;7.20;2.40;;;9.90;72.70;;;;;;6213842;22;20071;31
2023/03/01 17:53:48;;;;;;;45.72;18.33;;;6.90;89.20;;;;;;6105549;23;20475;-82
2023/03/01 17:56:19;;;;;;;41.00;18.60;;;6.80;89.40;;;;;;6106663;23;20026;-83
2023/03/01 17:58:46;;;;;;;58.17;21.90;;;6.80;89.60;;;;;;6107947;23;20029;-82
2023/03/01 18:01:22;;;;;;;76.53;26.40;;;6.80;89.70;;;;;;6046588;23;20103;-83
2023/03/01 18:03:53;;;;;;;108.35;33.47;;;6.70;89.70;;;;;;6020930;23;20024;-83
2023/03/01 18:06:27;;;;;;;87.82;30.65;;;6.70;89.80;;;;;;5992797;23;20188;-82
2023/03/01 18:08:55;;;;;;;70.80;25.63;;;6.70;89.90;;;;;;5965343;23;20056;-82
2023/03/01 18:11:24;;;;;;;88.18;32.83;;;6.60;90.20;;;;;;5965479;23;20119;-82
2023/03/01 18:13:53;;;;;;;85.80;35.50;;;6.60;90.00;;;;;;5991981;23;20073;-82
2023/03/01 18:16:22;;;;;;;89.25;36.67;;;6.50;90.00;;;;;;5990465;23;20115;-82
2023/03/01 18:18:54;;;;;;;81.35;34.72;;;6.50;90.10;;;;;;5994460;23;20027;-82
2023/03/01 18:21:23;;;;;;;63.00;30.10;;;6.50;90.30;;;;;;5991599;23;20072;-82
2023/03/01 18:23:56;;;;;;;64.47;29.00;;;6.40;90.30;;;;;;5967932;23;20023;-82
2023/03/01 18:26:24;;;;;;;54.38;23.48;;;6.40;90.40;;;;;;5992376;23;20034;-83
2023/03/01 18:28:57;;;;;;;72.65;30.83;;;6.30;90.40;;;;;;6018281;23;20724;-82
2023/03/01 18:31:32;;;;;;;64.00;26.83;;;6.30;90.40;;;;;;5994144;23;20067;-82
2023/03/01 18:34:00;;;;;;;49.55;22.52;;;6.30;90.50;;;;;;6022002;23;20028;-82
2023/03/01 18:36:35;;;;;;;47.70;19.65;;;6.20;90.50;;;;;;6047693;23;20031;-82
2023/03/01 18:39:07;;;;;;;43.97;17.35;;;6.20;90.60;;;;;;6077834;23;20026;-82
2023/03/01 18:41:41;;;;;;;43.97;16.73;;;6.20;90.60;;;;;;6051323;23;20022;-83
2023/03/01 18:44:10;;;;;;;35.38;15.90;;;6.20;90.70;;;;;;6073220;23;20523;-82
2023/03/01 18:46:39;;;;;;;31.00;14.15;;;6.10;90.70;;;;;;6072582;23;20030;-83
2023/03/01 18:49:08;;;;;;;36.25;16.55;;;6.10;90.70;;;;;;6070534;23;20023;-82
2023/03/01 18:51:39;;;;;;;48.83;18.70;;;6.10;90.70;;;;;;6027911;23;20058;-83
2023/03/01 18:54:10;;;;;;;54.67;21.30;;;6.10;90.80;;;;;;6048083;23;20026;-82
2023/03/01 18:56:40;;;;;;;62.92;23.98;;;6.10;90.80;;;;;;6073573;23;20502;-82
2023/03/01 18:59:09;;;;;;;62.42;23.60;;;6.00;90.90;;;;;;6072489;23;20067;-82
2023/03/01 19:01:42;;;;;;;55.60;21.05;;;6.00;90.90;;;;;;6080948;23;20035;-81
2023/03/01 19:04:10;;;;;;;48.45;21.73;;;6.00;91.00;;;;;;6104976;23;20415;-82
2023/03/01 19:06:40;;;;;;;61.67;25.55;;;6.00;91.00;;;;;;6103324;23;20048;-81
2023/03/01 19:09:10;;;;;;;66.43;28.23;;;5.90;91.00;;;;;;6103247;23;20066;-81
2023/03/01 19:11:40;;;;;;;52.25;24.08;;;5.90;91.10;;;;;;6079766;23;20036;-81
2023/03/01 19:14:09;;;;;;;57.17;23.05;;;5.90;91.10;;;;;;6082188;23;20504;-81
2023/03/01 19:16:37;;;;;;;55.05;23.33;;;5.90;91.10;;;;;;6104049;23;20086;-81
2023/03/01 19:19:08;;;;;;;54.17;23.15;;;5.90;91.20;;;;;;6100034;23;20026;-81
2023/03/01 19:21:37;;;;;;;56.53;22.30;;;5.90;91.20;;;;;;6095571;23;20026;-81
2023/03/01 19:24:06;;;;;;;52.90;23.00;;;5.80;91.10;;;;;;6119101;23;20028;-80
2023/03/01 19:26:34;;;;;;;54.08;22.65;;;5.80;91.10;;;;;;6093484;23;20524;-81
2023/03/01 19:29:03;;;;;;;56.30;23.95;;;5.80;91.30;;;;;;6120332;23;20418;-81
2023/03/01 19:31:31;;;;;;;59.92;24.80;;;5.70;91.40;;;;;;6116406;23;20109;-81
2023/03/01 19:34:00;;;;;;;67.05;26.92;;;5.70;91.60;;;;;;6093304;23;20030;-81
2023/03/01 19:36:42;;;;;;;62.00;24.17;;;5.70;91.70;;;;;;6095954;23;20054;-80
2023/03/01 19:39:12;;;;;;;63.90;24.20;;;5.60;91.80;;;;;;6116854;23;20036;-80
2023/03/01 19:41:41;;;;;;;51.97;24.83;;;5.60;91.80;;;;;;6117062;23;20518;-81
2023/03/01 19:44:09;;;;;;;60.15;25.27;;;5.50;92.00;;;;;;6120008;23;20456;-81
2023/03/01 19:46:38;;;;;;;65.88;24.17;;;5.50;92.20;;;;;;6122746;23;20045;-81
2023/03/01 19:49:07;;;;;;;57.92;23.63;;;5.40;92.40;;;;;;6120373;23;20026;-80
2023/03/01 19:51:37;;;;;;;57.03;23.75;;;5.40;92.50;;;;;;6111168;23;20037;-81
2023/03/01 19:54:26;;;;;;;65.57;27.85;;;5.30;92.60;;;;;;6137723;23;20022;-81
2023/03/01 19:57:12;;;;;;;65.32;26.05;;;5.30;92.70;;;;;;6109160;23;20081;-81
2023/03/01 19:59:42;;;;;;;62.28;25.25;;;5.30;92.80;;;;;;6089097;23;20118;-81
2023/03/01 20:02:14;;;;;;;;;;;5.20;92.90;;;;;;6053967;23;20022;-81
2023/03/01 20:04:43;;;;;;;54.08;24.27;;;5.20;93.00;;;;;;6073825;23;19901;-81
2023/03/01 20:07:12;;;;;;;62.83;26.05;;;5.20;93.10;;;;;;6049335;23;20129;-81
2023/03/01 20:09:42;;;;;;;61.60;25.15;;;5.10;93.10;;;;;;6026570;23;20079;-81
2023/03/01 20:12:11;;;;;;;59.22;26.00;;;5.10;93.20;;;;;;6050686;23;20027;-81
2023/03/01 20:14:41;;;;;;;62.97;26.05;;;5.10;93.50;;;;;;6050527;23;20054;-82
2023/03/01 20:17:11;;;;;;;64.47;25.98;;;5.00;93.60;;;;;;6050196;23;20043;-83
2023/03/01 20:19:41;;;;;;;55.72;25.35;;;5.00;93.80;;;;;;6049621;23;20055;-82
2023/03/01 20:22:13;;;;;;;58.88;25.55;;;5.00;93.60;;;;;;6048927;23;20116;-81
2023/03/01 20:24:42;;;;;;;57.55;24.77;;;4.90;93.70;;;;;;6054290;23;20014;-81
2023/03/01 20:27:11;;;;;;;55.72;25.33;;;4.90;93.80;;;;;;6028834;23;20739;-81
2023/03/01 20:29:40;;;;;;;53.67;24.15;;;4.80;93.90;;;;;;6031724;23;20050;-81
2023/03/01 20:32:10;;;;;;;57.60;24.58;;;4.80;94.10;;;;;;6056525;23;20127;-81
2023/03/01 20:34:41;;;;;;;53.63;24.42;;;4.70;94.30;;;;;;6118315;23;20027;-83
2023/03/01 20:37:10;;;;;;;58.90;25.25;;;4.70;94.50;;;;;;6119269;23;20017;-82
2023/03/01 20:39:40;;;;;;;57.63;25.80;;;4.70;94.50;;;;;;6143205;23;20018;-81
2023/03/01 20:42:10;;;;;;;64.55;25.77;;;4.60;94.60;;;;;;6108037;23;20041;-81
2023/03/01 20:44:43;;;;;;;59.80;27.00;;;4.60;94.70;;;;;;6040198;23;20006;-81
2023/03/01 20:47:14;;;;;;;72.60;27.88;;;4.50;94.80;;;;;;6087442;23;20030;-82
2023/03/01 20:49:42;;;;;;;72.32;29.35;;;4.50;95.00;;;;;;6108260;23;20022;-81
2023/03/01 20:52:11;;;;;;;73.63;29.52;;;4.50;95.00;;;;;;6109440;23;20027;-81
2023/03/01 20:54:39;;;;;;;71.38;29.70;;;4.40;94.90;;;;;;6087804;23;20014;-81
2023/03/01 20:57:08;;;;;;;75.38;29.15;;;4.40;94.90;;;;;;6089134;23;20181;-81
2023/03/01 20:59:39;;;;;;;73.78;29.40;;;4.40;94.80;;;;;;6088470;23;20051;-82
2023/03/01 21:02:10;;;;;;;69.20;30.77;;;4.30;95.00;;;;;;6109851;23;20021;-81
2023/03/01 21:04:39;;;;;;;85.75;32.53;;;4.40;95.30;;;;;;6088498;23;20042;-81
2023/03/01 21:07:06;;;;;;;93.43;36.42;;;4.30;95.20;;;;;;6063407;23;20019;-81
2023/03/01 21:09:34;;;;;;;94.35;37.92;;;4.30;95.10;;;;;;6089058;23;20015;-81
2023/03/01 21:12:03;;;;;;;86.80;33.90;;;4.30;95.10;;;;;;6066413;23;20022;-81
2023/03/01 21:14:41;;;;;;;94.15;37.22;;;4.20;95.20;;;;;;6057632;23;20019;-82
2023/03/01 21:17:15;;;;;;;103.43;42.28;;;4.20;95.30;;;;;;6009955;23;20071;-82
2023/03/01 21:19:43;;;;;;;106.95;39.28;;;4.20;95.50;;;;;;6058730;23;20020;-81
2023/03/01 21:22:14;;;;;;;107.43;41.30;;;4.20;95.60;;;;;;6012585;23;20042;-81
2023/03/01 21:24:42;;;;;;;108.63;42.28;;;4.10;95.60;;;;;;6060183;23;20035;-82
2023/03/01 21:27:14;;;;;;;115.28;43.15;;;4.00;95.60;;;;;;6033218;23;20031;-81
2023/03/01 21:29:44;;;;;;;110.43;43.85;;;4.00;95.80;;;;;;6056263;23;20020;-81
2023/03/01 21:32:13;;;;;;;107.40;41.83;;;4.00;95.80;;;;;;6056910;23;20032;-81
2023/03/01 21:34:42;;;;;;;116.97;42.28;;;3.30;95.70;;;;;;6011517;23;20071;-81
2023/03/01 21:37:10;;;;;;;119.00;43.15;;;4.00;96.00;;;;;;6059484;23;20095;-83
2023/03/01 21:39:37;;;;;;;115.57;42.03;;;4.00;96.20;;;;;;6037213;23;20067;-81
2023/03/01 21:42:06;;;;;;;108.57;42.22;;;4.00;96.20;;;;;;6036995;23;20182;-81
2023/03/01 21:44:35;;;;;;;125.00;47.00;;;4.00;96.30;;;;;;6063071;23;20023;-81
2023/03/01 21:47:05;;;;;;;119.40;44.78;;;3.90;96.40;;;;;;6089938;23;20098;-81
2023/03/01 21:49:38;;;;;;;129.38;47.60;;;3.90;96.50;;;;;;6143457;23;20019;-82
2023/03/01 21:52:05;;;;;;;137.43;48.00;;;3.90;96.50;;;;;;6126500;23;20049;-82
2023/03/01 21:54:33;;;;;;;136.13;50.75;;;3.90;96.60;;;;;;6149042;23;20022;-82
2023/03/01 21:57:00;;;;;;;141.85;50.15;;;3.90;96.60;;;;;;6149490;23;20025;-82
2023/03/01 21:59:28;;;;;;;139.48;50.28;;;3.90;96.70;;;;;;6149721;23;20073;-82
2023/03/01 22:01:56;;;;;;;138.07;50.20;;;3.80;96.70;;;;;;6149049;23;20014;-82
2023/03/01 22:04:24;;;;;;;161.18;54.03;;;3.80;96.80;;;;;;6148746;23;20319;-82
2023/03/01 22:06:57;;;;;;;183.27;60.85;;;3.80;96.80;;;;;;6146070;23;20017;-82
2023/03/01 22:09:24;;;;;;;200.32;61.78;;;3.80;96.80;;;;;;6146071;23;20010;-81
2023/03/01 22:11:57;;;;;;;177.25;55.83;;;3.80;96.90;;;;;;6145917;23;20089;-81
2023/03/01 22:14:30;;;;;;;143.55;49.95;;;3.70;96.90;;;;;;6145507;23;20086;-83
2023/03/01 22:16:58;;;;;;;125.05;45.17;;;3.70;96.90;;;;;;6121134;23;20030;-82
2023/03/01 22:19:27;;;;;;;102.32;36.90;;;3.70;96.50;;;;;;6147931;23;20014;-82
2023/03/01 22:21:58;;;;;;;87.20;31.17;;;3.60;96.10;;;;;;6147172;23;20014;-82
2023/03/01 22:24:25;;;;;;;79.25;28.10;;;3.70;95.40;;;;;;6146256;23;20017;-82
2023/03/01 22:26:57;;;;;;;63.00;25.80;;;3.70;94.70;;;;;;6146546;23;20014;-82
2023/03/01 22:29:27;;;;;;;62.72;22.38;;;3.60;94.30;;;;;;6148202;23;20018;-82
2023/03/01 22:31:57;;;;;;;54.78;21.65;;;3.60;93.70;;;;;;6093122;23;20019;-82
2023/03/01 22:34:26;;;;;;;49.67;21.10;;;3.60;93.40;;;;;;6094893;23;20034;-82